Time;durP1;ratioP1;P1;durP2;ratioP2;P2;SDS_P1;SDS_P2;PMS_P1;PMS_P2;Temp;Humidity;BMP_temperature;BMP_pressure;BME280_temperature;BME280_humidity;BME280_pressure;Samples;Min_cycle;Max_cycle;Signal;HPM_P1;HPM_P2
2021/05/26 14:07:21;;;;;;;12.35;11.18;;;;;;;9.71;76.07;99555.88;5070364;28;20464;-73
2021/05/26 14:09:47;;;;;;;9.73;8.73;;;;;;;9.74;76.22;99553.28;5069882;28;20028;-73
2021/05/26 14:12:12;;;;;;;11.95;9.15;;;;;;;9.81;76.50;99553.38;5070855;28;20025;-74
2021/05/26 14:14:38;;;;;;;16.10;9.68;;;;;;;9.88;76.46;99545.69;5053093;28;20526;-74
2021/05/26 14:17:04;;;;;;;12.90;10.68;;;;;;;9.98;76.59;99543.19;5070647;28;20032;-73
2021/05/26 14:19:29;;;;;;;12.32;10.20;;;;;;;10.05;76.63;99553.63;5070729;28;20028;-74
2021/05/26 14:21:55;;;;;;;33.35;18.65;;;;;;;10.12;76.57;99545.94;5070575;28;20024;-74
2021/05/26 14:24:20;;;;;;;33.60;16.33;;;;;;;10.19;76.01;99551.19;5053045;28;20037;-75
2021/05/26 14:26:46;;;;;;;39.13;15.50;;;;;;;10.24;76.61;99543.44;5070290;28;20032;-75
2021/05/26 14:29:11;;;;;;;35.20;18.13;;;;;;;10.28;76.40;99558.16;5070114;28;20040;-75
2021/05/26 14:31:37;;;;;;;29.42;13.70;;;;;;;10.32;76.49;99557.34;5069821;28;20032;-75
2021/05/26 14:34:03;;;;;;;31.73;19.02;;;;;;;10.36;76.43;99566.00;5069233;28;20032;-72
2021/05/26 14:36:30;;;;;;;55.25;34.30;;;;;;;10.38;76.18;99568.59;5069153;28;20025;-72
2021/05/26 14:41:24;;;;;;;38.80;22.30;;;;;;;10.41;76.41;99560.91;5070056;28;20025;-72
2021/05/26 14:43:50;;;;;;;43.67;22.15;;;;;;;10.42;76.07;99583.38;5070199;28;20039;-71
2021/05/26 14:46:16;;;;;;;60.55;33.60;;;;;;;10.42;76.04;99594.59;5068801;28;20032;-72
2021/05/26 14:48:42;;;;;;;90.72;43.63;;;;;;;10.44;76.04;99594.59;5070150;28;20388;-72
2021/05/26 14:51:08;;;;;;;72.82;33.20;;;;;;;10.45;76.23;99597.19;5052215;28;20110;-73
2021/05/26 14:53:35;;;;;;;64.45;31.40;;;;;;;10.46;76.37;99598.94;5068768;28;20052;-69
2021/05/26 14:56:05;;;;;;;54.85;28.13;;;;;;;10.47;76.33;99597.25;5068932;28;20477;-69
2021/05/26 14:58:31;;;;;;;48.72;27.73;;;;;;;10.49;75.94;99603.31;5051877;28;20102;-68
2021/05/26 15:00:57;;;;;;;53.65;23.13;;;;;;;10.48;75.95;99601.56;5052304;28;20068;-68
2021/05/26 15:03:22;;;;;;;44.70;21.38;;;;;;;10.48;76.03;99609.34;5069784;28;20127;-68
2021/05/26 15:05:48;;;;;;;33.25;15.35;;;;;;;10.49;76.06;99601.56;5068116;28;20045;-67
2021/05/26 15:08:13;;;;;;;26.33;13.18;;;;;;;10.50;75.89;99605.91;5069604;28;20029;-68
2021/05/26 15:10:38;;;;;;;35.20;13.68;;;;;;;10.53;76.09;99606.78;5069523;28;20108;-67
2021/05/26 15:13:04;;;;;;;21.75;9.75;;;;;;;10.55;75.77;99607.66;5068275;28;20031;-68
2021/05/26 15:15:29;;;;;;;20.02;9.35;;;;;;;10.56;75.70;99604.22;5069608;28;20079;-68
2021/05/26 15:17:57;;;;;;;14.27;8.05;;;;;;;10.59;75.83;99597.34;5060339;28;20036;-71
2021/05/26 15:20:23;;;;;;;18.08;8.40;;;;;;;10.64;75.83;99607.75;5054852;28;20029;-70
2021/05/26 15:22:48;;;;;;;17.00;8.18;;;;;;;10.68;75.89;99596.56;5056484;28;20107;-71
2021/05/26 15:25:15;;;;;;;14.90;7.68;;;;;;;10.72;75.84;99600.03;5055909;28;20423;-71
2021/05/26 15:27:40;;;;;;;18.58;6.03;;;;;;;10.74;75.75;99601.81;5055204;28;20064;-63
2021/05/26 15:30:09;;;;;;;21.40;7.00;;;;;;;10.77;75.53;99608.72;5054962;28;20068;-64
2021/05/26 15:32:35;;;;;;;16.45;6.05;;;;;;;10.78;75.84;99603.53;5055868;28;20476;-64
2021/05/26 15:35:01;;;;;;;13.57;5.10;;;;;;;10.78;75.51;99615.66;5054613;28;20087;-63
2021/05/26 15:37:26;;;;;;;10.30;5.05;;;;;;;10.77;75.68;99617.34;5054835;28;20044;-63
2021/05/26 15:39:52;;;;;;;9.75;4.72;;;;;;;10.79;75.56;99613.06;5054520;28;20476;-64
2021/05/26 15:42:17;;;;;;;10.88;5.60;;;;;;;10.81;75.12;99615.69;5055732;28;20052;-63
2021/05/26 15:44:42;;;;;;;18.23;5.30;;;;;;;10.80;75.58;99619.97;5055958;28;20041;-64
2021/05/26 15:47:08;;;;;;;6.10;4.57;;;;;;;10.82;75.25;99612.22;5055821;28;20490;-63
2021/05/26 15:49:36;;;;;;;7.78;4.88;;;;;;;10.82;75.34;99612.22;5056003;28;20074;-63
2021/05/26 15:52:01;;;;;;;19.20;11.45;;;;;;;10.84;75.55;99612.22;5055671;28;20060;-62
2021/05/26 15:54:27;;;;;;;13.75;10.27;;;;;;;10.85;75.31;99612.22;5055305;28;20029;-60
2021/05/26 15:56:52;;;;;;;20.55;13.32;;;;;;;10.84;75.13;99613.09;5055491;28;20029;-60
2021/05/26 15:59:17;;;;;;;26.77;16.58;;;;;;;10.85;75.12;99620.00;5055622;28;20125;-61
2021/05/26 16:01:43;;;;;;;27.75;16.55;;;;;;;10.85;75.30;99635.56;5054448;28;20357;-61
2021/05/26 16:04:08;;;;;;;24.17;15.85;;;;;;;10.86;75.10;99662.38;5055596;28;20094;-60
2021/05/26 16:06:34;;;;;;;20.30;15.18;;;;;;;10.86;75.27;99652.84;5055387;28;20052;-60
2021/05/26 16:09:03;;;;;;;19.20;14.13;;;;;;;10.85;75.30;99656.31;5055353;28;20040;-60
2021/05/26 16:11:28;;;;;;;21.20;13.32;;;;;;;10.86;75.37;99642.47;5037862;28;20064;-60
2021/05/26 16:13:57;;;;;;;18.38;12.27;;;;;;;10.87;75.32;99633.00;5054952;28;20388;-61
2021/05/26 16:16:22;;;;;;;16.35;11.55;;;;;;;10.86;75.25;99632.13;5037233;28;20399;-60
2021/05/26 16:18:50;;;;;;;18.13;12.15;;;;;;;10.88;74.92;99629.56;5055131;28;20429;-60
2021/05/26 16:21:15;;;;;;;16.83;10.75;;;;;;;10.87;74.87;99639.03;5055320;28;20037;-61
2021/05/26 16:23:41;;;;;;;14.30;11.07;;;;;;;10.88;75.31;99635.59;5055620;28;20526;-61
2021/05/26 16:26:07;;;;;;;16.55;10.85;;;;;;;10.89;74.91;99642.50;5054922;28;20025;-60
2021/05/26 16:28:37;;;;;;;12.30;9.15;;;;;;;10.89;75.07;99636.47;5053582;28;20091;-60
2021/05/26 16:31:03;;;;;;;11.00;8.68;;;;;;;10.89;75.06;99639.94;5054605;28;20048;-60
2021/05/26 16:33:29;;;;;;;14.20;9.05;;;;;;;10.88;75.34;99638.19;5054986;28;20025;-60
2021/05/26 16:35:55;;;;;;;10.05;8.15;;;;;;;10.90;75.02;99639.06;5053312;28;20028;-60
2021/05/26 16:38:20;;;;;;;9.10;7.50;;;;;;;10.89;74.88;99639.94;5054117;28;20029;-61
2021/05/26 16:40:45;;;;;;;13.02;8.05;;;;;;;10.89;75.25;99647.69;5053770;28;20373;-60
2021/05/26 16:43:11;;;;;;;11.55;7.93;;;;;;;10.90;74.84;99639.06;5053342;28;20420;-61
2021/05/26 16:45:36;;;;;;;10.13;6.45;;;;;;;10.91;75.24;99639.94;5054572;28;20056;-60
2021/05/26 16:48:02;;;;;;;8.65;6.68;;;;;;;10.91;75.01;99639.94;5053707;28;20037;-60
2021/05/26 16:50:28;;;;;;;7.20;6.13;;;;;;;10.91;75.14;99646.00;5054283;28;20465;-61
2021/05/26 16:52:53;;;;;;;10.63;6.95;;;;;;;10.92;75.05;99652.91;5054185;28;20037;-61
2021/05/26 16:55:20;;;;;;;8.82;7.25;;;;;;;10.91;74.69;99646.00;5054474;28;20029;-61
2021/05/26 16:57:46;;;;;;;9.00;6.70;;;;;;;10.92;74.57;99644.25;5036474;28;20037;-62
2021/05/26 17:00:15;;;;;;;8.30;6.40;;;;;;;10.92;74.56;99649.44;5036424;28;20091;-61
2021/05/26 17:02:41;;;;;;;8.73;5.85;;;;;;;10.92;74.72;99649.44;5036476;28;20064;-61
2021/05/26 17:05:08;;;;;;;9.00;5.97;;;;;;;10.92;74.64;99652.03;5052472;28;20048;-61
2021/05/26 17:07:34;;;;;;;9.23;6.35;;;;;;;10.92;74.92;99649.44;5054479;28;20036;-61
2021/05/26 17:10:00;;;;;;;9.13;6.47;;;;;;;10.92;75.00;99649.44;5036623;28;20029;-61
2021/05/26 17:12:26;;;;;;;7.38;6.30;;;;;;;10.91;74.68;99652.88;5036472;28;20384;-60
2021/05/26 17:14:52;;;;;;;11.50;7.13;;;;;;;10.91;74.97;99651.19;5053921;28;20552;-61
2021/05/26 17:17:18;;;;;;;8.57;6.03;;;;;;;10.92;74.68;99665.88;5036228;28;20025;-61
2021/05/26 17:19:45;;;;;;;8.73;6.88;;;;;;;10.92;74.48;99657.22;5053753;28;20102;-60
2021/05/26 17:22:10;;;;;;;7.25;6.20;;;;;;;10.92;74.78;99652.03;5036135;28;20067;-61
2021/05/26 17:24:37;;;;;;;7.05;5.82;;;;;;;10.92;74.91;99657.22;5036046;28;20456;-61
2021/05/26 17:27:05;;;;;;;7.55;6.65;;;;;;;10.92;74.89;99667.59;5052707;28;20052;-60
2021/05/26 17:29:30;;;;;;;7.75;6.03;;;;;;;10.91;74.73;99673.63;5035852;28;20545;-60
2021/05/26 17:31:55;;;;;;;8.68;5.95;;;;;;;10.91;74.37;99666.75;5035871;28;20024;-60
2021/05/26 17:34:21;;;;;;;7.45;6.25;;;;;;;10.91;74.63;99671.91;5053739;28;20036;-61
2021/05/26 17:36:46;;;;;;;7.18;6.00;;;;;;;10.90;74.68;99672.78;5053646;28;20025;-60
2021/05/26 17:39:12;;;;;;;7.78;6.22;;;;;;;10.90;74.31;99680.56;5053904;28;20036;-60
2021/05/26 17:41:38;;;;;;;7.30;6.30;;;;;;;10.90;74.54;99675.38;5035460;28;20029;-61
2021/05/26 17:44:04;;;;;;;7.70;5.93;;;;;;;10.90;74.40;99679.69;5053788;28;20036;-61
2021/05/26 17:46:30;;;;;;;7.45;6.25;;;;;;;10.90;74.35;99690.94;5035750;28;20033;-60
2021/05/26 17:48:55;;;;;;;8.48;6.05;;;;;;;10.90;74.60;99693.50;5053017;28;20095;-60
2021/05/26 17:51:21;;;;;;;7.88;6.47;;;;;;;10.89;74.37;99694.38;5053548;28;20219;-61
2021/05/26 17:53:46;;;;;;;7.07;6.30;;;;;;;10.90;74.58;99690.94;5053538;28;20029;-62
2021/05/26 17:56:13;;;;;;;6.63;5.43;;;;;;;10.90;74.74;99684.88;5052315;28;20064;-61
2021/05/26 17:58:39;;;;;;;8.85;6.13;;;;;;;10.90;74.29;99697.84;5035502;28;20123;-60
2021/05/26 18:01:06;;;;;;;9.10;7.10;;;;;;;10.89;74.46;99694.38;5035675;28;20121;-61
2021/05/26 18:03:32;;;;;;;7.72;6.38;;;;;;;10.90;74.64;99700.44;5035393;28;20391;-60
2021/05/26 18:05:57;;;;;;;10.60;6.72;;;;;;;10.90;74.36;99692.66;5053133;28;20477;-61
2021/05/26 18:08:25;;;;;;;6.75;6.05;;;;;;;10.91;74.43;99702.16;5053245;28;20162;-60
2021/05/26 18:10:51;;;;;;;7.53;5.82;;;;;;;10.91;74.68;99707.34;5052073;28;20037;-60
2021/05/26 18:13:17;;;;;;;8.77;5.55;;;;;;;10.89;74.48;99706.47;5052040;28;20556;-62
2021/05/26 18:15:47;;;;;;;6.95;6.25;;;;;;;10.90;74.20;99706.47;5053370;28;20059;-60
2021/05/26 18:18:13;;;;;;;9.05;6.45;;;;;;;10.90;74.23;99711.66;5035293;28;20025;-62
2021/05/26 18:20:39;;;;;;;9.60;6.05;;;;;;;10.90;74.28;99716.84;5052076;28;20029;-60
2021/05/26 18:23:06;;;;;;;7.18;5.63;;;;;;;10.92;74.44;99717.75;5035368;28;20040;-60
2021/05/26 18:25:32;;;;;;;7.75;6.40;;;;;;;10.90;74.05;99727.22;5035303;28;20116;-61
2021/05/26 18:28:00;;;;;;;7.45;6.05;;;;;;;10.91;74.57;99712.53;5051708;28;20025;-61
2021/05/26 18:30:27;;;;;;;7.32;5.75;;;;;;;10.92;74.46;99732.41;5035159;28;20044;-60
2021/05/26 18:32:54;;;;;;;7.75;6.57;;;;;;;10.92;74.38;99722.03;5035010;28;20102;-60
2021/05/26 18:35:20;;;;;;;9.25;5.90;;;;;;;10.91;74.13;99717.72;5052069;28;20025;-61
2021/05/26 18:37:49;;;;;;;7.57;5.47;;;;;;;10.92;74.18;99732.41;5051786;28;20066;-61
2021/05/26 18:40:21;;;;;;;9.90;6.25;;;;;;;10.90;74.14;99734.16;5035226;28;20118;-61
2021/05/26 18:42:47;;;;;;;7.30;5.72;;;;;;;10.89;74.24;99732.41;5051505;28;20117;-61
2021/05/26 18:45:15;;;;;;;6.80;6.00;;;;;;;10.90;74.21;99727.22;5052523;28;20116;-61
2021/05/26 18:47:41;;;;;;;5.82;5.30;;;;;;;10.89;74.27;99733.25;5035140;28;20033;-60
2021/05/26 18:50:09;;;;;;;7.28;5.53;;;;;;;10.90;74.39;99734.16;5035042;28;20127;-61
2021/05/26 18:52:35;;;;;;;6.63;5.30;;;;;;;10.90;73.87;99741.91;5053337;28;20468;-60
2021/05/26 18:55:03;;;;;;;6.03;5.43;;;;;;;10.89;74.12;99733.25;5038873;28;20028;-61
2021/05/26 18:57:28;;;;;;;5.80;5.22;;;;;;;10.88;74.37;99733.25;5038838;28;20059;-61
2021/05/26 18:59:53;;;;;;;6.78;5.35;;;;;;;10.90;74.34;99744.50;5056659;28;20536;-61
2021/05/26 19:02:23;;;;;;;7.38;5.47;;;;;;;10.87;74.39;99740.16;5410752;22;20054;-58
2021/05/26 19:04:48;;;;;;;5.82;5.22;;;;;;;10.87;73.98;99742.75;4997190;28;20493;-58
2021/05/26 19:07:14;;;;;;;5.50;4.97;;;;;;;10.88;74.30;99749.66;4997017;28;20065;-57
2021/05/26 19:09:40;;;;;;;6.57;4.38;;;;;;;10.87;74.03;99747.94;4996055;28;20038;-57
2021/05/26 19:12:08;;;;;;;8.02;5.50;;;;;;;10.87;74.18;99750.53;4995606;28;20068;-57
2021/05/26 19:14:38;;;;;;;7.63;5.75;;;;;;;10.87;74.37;99753.09;4997510;28;20030;-57
2021/05/26 19:17:04;;;;;;;8.13;5.50;;;;;;;10.87;74.09;99753.09;4995887;28;20042;-56
2021/05/26 19:19:33;;;;;;;6.35;5.55;;;;;;;10.87;73.93;99752.25;4996694;28;20038;-56
2021/05/26 19:21:58;;;;;;;8.00;5.10;;;;;;;10.86;74.02;99756.56;4995464;28;20042;-57
2021/05/26 19:24:29;;;;;;;7.47;5.50;;;;;;;10.86;73.96;99761.75;4996916;28;20100;-57
2021/05/26 19:26:56;;;;;;;7.53;5.32;;;;;;;10.85;73.85;99759.16;4995010;28;20038;-56
2021/05/26 19:29:23;;;;;;;6.53;5.75;;;;;;;10.84;73.88;99753.06;4995721;28;20037;-56
2021/05/26 19:31:51;;;;;;;7.05;5.07;;;;;;;10.84;74.08;99754.81;4995508;28;20035;-56
2021/05/26 19:34:17;;;;;;;7.07;5.82;;;;;;;10.82;74.20;99755.66;4996560;28;20049;-56
2021/05/26 19:36:43;;;;;;;7.72;5.72;;;;;;;10.81;74.20;99760.84;4996556;28;20046;-58
2021/05/26 19:39:10;;;;;;;7.28;6.00;;;;;;;10.81;74.24;99763.44;4995460;28;20539;-57
2021/05/26 19:41:38;;;;;;;7.30;5.90;;;;;;;10.80;74.05;99762.56;4979945;28;20038;-57
2021/05/26 19:44:06;;;;;;;6.47;5.20;;;;;;;10.79;73.94;99766.00;4996247;28;20046;-56
2021/05/26 19:46:34;;;;;;;8.75;5.50;;;;;;;10.79;73.91;99757.38;4978996;28;20065;-58
2021/05/26 19:49:04;;;;;;;7.10;6.28;;;;;;;10.78;74.03;99763.41;4996521;28;20038;-57
2021/05/26 19:51:30;;;;;;;9.10;5.93;;;;;;;10.78;73.94;99768.59;4996338;28;20045;-57
2021/05/26 19:53:59;;;;;;;9.32;6.43;;;;;;;10.77;74.07;99772.03;4995772;28;20457;-57
2021/05/26 19:56:26;;;;;;;6.25;5.32;;;;;;;10.75;73.95;99776.31;4978802;28;20493;-59
2021/05/26 19:58:51;;;;;;;9.52;6.82;;;;;;;10.75;73.66;99784.94;4994975;28;20034;-58
2021/05/26 20:01:17;;;;;;;8.35;6.57;;;;;;;10.76;73.82;99783.25;4996322;28;20160;-59
2021/05/26 20:03:46;;;;;;;8.10;6.78;;;;;;;10.75;74.22;99781.50;4996242;28;20104;-58
2021/05/26 20:06:11;;;;;;;7.47;5.45;;;;;;;10.74;73.89;99792.72;4978837;28;20039;-59
2021/05/26 20:08:37;;;;;;;7.65;5.90;;;;;;;10.73;74.03;99791.88;5010658;28;20057;-58
2021/05/26 20:11:03;;;;;;;8.80;6.13;;;;;;;10.73;73.85;99802.22;4996754;28;20128;-58
2021/05/26 20:13:29;;;;;;;9.95;6.47;;;;;;;10.72;73.97;99799.59;4996326;28;20038;-58
2021/05/26 20:15:54;;;;;;;6.53;5.45;;;;;;;10.73;73.94;99809.13;4994701;28;20092;-58
2021/05/26 20:18:21;;;;;;;8.50;6.20;;;;;;;10.71;73.98;99797.88;4995836;28;20442;-59
2021/05/26 20:20:47;;;;;;;9.75;6.13;;;;;;;10.72;73.93;99802.19;4995503;28;20031;-61
2021/05/26 20:23:20;;;;;;;8.15;6.70;;;;;;;10.73;74.25;99807.41;4994249;28;20108;-60
2021/05/26 20:25:46;;;;;;;40.17;27.63;;;;;;;10.76;73.92;99806.56;4994987;28;20124;-61
2021/05/26 20:28:15;;;;;;;156.15;92.68;;;;;;;10.78;73.92;99810.06;4994449;28;20435;-60
2021/05/26 20:30:41;;;;;;;290.00;171.43;;;;;;;10.78;73.77;99815.25;4995265;28;20079;-61
2021/05/26 20:33:08;;;;;;;214.63;123.28;;;;;;;10.79;73.74;99812.66;4994400;28;20042;-60
2021/05/26 20:35:33;;;;;;;130.30;74.05;;;;;;;10.78;74.09;99813.50;4995475;28;20490;-61
2021/05/26 20:38:00;;;;;;;173.65;93.93;;;;;;;10.80;73.88;99803.19;5010150;28;20066;-60
2021/05/26 20:40:27;;;;;;;143.00;81.32;;;;;;;10.80;73.59;99814.41;4995451;28;20069;-60
2021/05/26 20:42:53;;;;;;;136.52;77.22;;;;;;;10.83;73.59;99816.16;4995243;28;20494;-61
2021/05/26 20:45:24;;;;;;;130.50;71.18;;;;;;;10.83;73.96;99813.56;4994253;28;20049;-60
2021/05/26 20:47:49;;;;;;;113.85;63.92;;;;;;;10.83;73.87;99816.16;4994371;28;20046;-60
2021/05/26 20:50:20;;;;;;;113.25;57.00;;;;;;;10.84;73.61;99814.44;4994072;28;20034;-60
2021/05/26 20:52:51;;;;;;;106.20;50.77;;;;;;;10.85;73.60;99822.22;4994380;28;20030;-60
2021/05/26 20:55:21;;;;;;;81.68;44.75;;;;;;;10.86;73.84;99818.78;4994816;28;20038;-61
2021/05/26 20:57:49;;;;;;;86.35;42.15;;;;;;;10.85;73.93;99822.22;4995154;28;20034;-57
2021/05/26 21:00:17;;;;;;;52.33;27.88;;;;;;;10.82;73.52;99825.66;5009490;22;20097;-60
2021/05/26 21:02:43;;;;;;;53.63;29.98;;;;;;;10.80;73.63;99832.53;4977621;28;20034;-60
2021/05/26 21:05:10;;;;;;;55.05;30.50;;;;;;;10.79;73.63;99828.22;4994659;28;20132;-60
2021/05/26 21:07:36;;;;;;;41.38;23.50;;;;;;;10.79;73.86;99829.94;4993780;28;20125;-60
2021/05/26 21:10:05;;;;;;;44.88;25.10;;;;;;;10.78;73.71;99823.03;4994729;28;20112;-60
2021/05/26 21:12:31;;;;;;;40.42;23.83;;;;;;;10.77;73.78;99840.28;4993844;28;20491;-60
2021/05/26 21:14:56;;;;;;;40.60;22.45;;;;;;;10.76;73.66;99835.94;4993082;28;20042;-60
2021/05/26 21:17:22;;;;;;;36.40;21.73;;;;;;;10.75;73.65;99833.34;4993415;28;20125;-60
2021/05/26 21:19:48;;;;;;;28.00;15.15;;;;;;;10.76;73.49;99838.53;4993525;28;20269;-60
2021/05/26 21:22:14;;;;;;;30.42;16.38;;;;;;;10.76;73.78;99842.88;4977306;28;20042;-60
2021/05/26 21:24:39;;;;;;;29.77;18.60;;;;;;;10.76;73.91;99848.91;4994297;28;20464;-60
2021/05/26 21:27:05;;;;;;;27.25;16.48;;;;;;;10.76;73.70;99842.88;4994540;28;20041;-60
2021/05/26 21:29:31;;;;;;;31.92;15.88;;;;;;;10.75;73.59;99841.13;4994300;28;20507;-60
2021/05/26 21:31:57;;;;;;;28.80;16.08;;;;;;;10.75;73.91;99844.56;4993434;28;20069;-60
2021/05/26 21:34:22;;;;;;;25.25;15.73;;;;;;;10.75;73.51;99843.72;4994706;28;20035;-60
2021/05/26 21:36:48;;;;;;;21.95;13.50;;;;;;;10.75;73.46;99851.50;4994262;28;20514;-61
2021/05/26 21:39:13;;;;;;;22.60;14.63;;;;;;;10.74;73.66;99857.53;4994488;28;20041;-60
2021/05/26 21:41:39;;;;;;;23.67;13.57;;;;;;;10.73;73.84;99858.38;4994413;28;20477;-60
2021/05/26 21:44:04;;;;;;;25.10;13.95;;;;;;;10.73;73.69;99858.38;4994749;28;20084;-61
2021/05/26 21:46:30;;;;;;;18.70;13.18;;;;;;;10.72;73.54;99859.22;4993035;28;20497;-59
2021/05/26 21:48:55;;;;;;;21.95;13.13;;;;;;;10.73;73.70;99850.59;4992785;28;20027;-60
2021/05/26 21:51:21;;;;;;;18.38;12.13;;;;;;;10.73;73.59;99850.59;4993437;28;20121;-60
2021/05/26 21:53:46;;;;;;;17.30;11.63;;;;;;;10.73;73.66;99854.06;4994416;28;20122;-60
2021/05/26 21:56:12;;;;;;;17.23;10.65;;;;;;;10.72;73.61;99847.16;4994123;28;20038;-59
2021/05/26 21:58:37;;;;;;;15.10;9.82;;;;;;;10.72;73.49;99843.66;4994051;28;20038;-60
2021/05/26 22:01:03;;;;;;;17.23;9.82;;;;;;;10.72;73.60;99844.56;4992831;28;20054;-60
2021/05/26 22:03:29;;;;;;;23.55;10.63;;;;;;;10.71;73.61;99850.59;4993561;28;20038;-60
2021/05/26 22:05:56;;;;;;;14.48;8.90;;;;;;;10.70;73.96;99853.16;4992936;28;20038;-61
2021/05/26 22:08:24;;;;;;;14.25;9.45;;;;;;;10.70;73.78;99846.25;4993983;28;20139;-61
2021/05/26 22:10:51;;;;;;;15.38;9.02;;;;;;;10.69;73.20;99844.50;4993957;28;20069;-61
2021/05/26 22:13:17;;;;;;;15.63;8.77;;;;;;;10.69;74.00;99854.88;4992475;28;20034;-60
2021/05/26 22:15:43;;;;;;;13.60;8.35;;;;;;;10.69;73.69;99856.59;4976586;28;20129;-60
2021/05/26 22:18:09;;;;;;;12.90;7.70;;;;;;;10.69;73.43;99847.09;4993751;28;20084;-61
2021/05/26 22:20:36;;;;;;;9.95;7.50;;;;;;;10.68;73.86;99857.44;4992857;28;20038;-60
2021/05/26 22:23:02;;;;;;;11.65;7.65;;;;;;;10.68;73.85;99860.03;4976499;28;20035;-61
2021/05/26 22:25:29;;;;;;;9.65;6.38;;;;;;;10.68;73.55;99865.22;4993730;28;20088;-60
2021/05/26 22:27:56;;;;;;;15.30;8.32;;;;;;;10.66;73.80;99855.72;4996002;28;20066;-60
2021/05/26 22:30:26;;;;;;;12.85;7.32;;;;;;;10.66;73.60;99862.63;4996725;28;20045;-61
2021/05/26 22:32:53;;;;;;;11.30;7.20;;;;;;;10.66;73.58;99863.50;4980213;28;20042;-60
2021/05/26 22:35:20;;;;;;;8.25;5.25;;;;;;;10.66;73.69;99855.72;4980972;28;20460;-60
2021/05/26 22:37:48;;;;;;;7.53;5.53;;;;;;;10.66;73.84;99857.44;4997578;28;20030;-60
2021/05/26 22:40:14;;;;;;;8.55;5.65;;;;;;;10.66;73.75;99858.31;4997833;28;20486;-60
2021/05/26 22:42:40;;;;;;;9.50;6.32;;;;;;;10.66;73.67;99854.84;4980301;28;20034;-60
2021/05/26 22:45:16;;;;;;;9.45;5.85;;;;;;;10.66;73.68;99858.31;4997694;28;20041;-60
2021/05/26 22:47:42;;;;;;;8.80;5.20;;;;;;;10.65;73.83;99851.38;4995995;28;20070;-60
2021/05/26 22:50:07;;;;;;;10.05;5.55;;;;;;;10.63;73.89;99847.91;4997760;28;20073;-59
2021/05/26 22:52:33;;;;;;;8.15;5.45;;;;;;;10.62;73.85;99846.16;4997723;28;20041;-60
2021/05/26 22:54:58;;;;;;;8.75;5.30;;;;;;;10.63;73.74;99849.59;4997037;28;20465;-60
2021/05/26 22:57:24;;;;;;;9.10;4.80;;;;;;;10.63;73.81;99854.78;4995823;28;20042;-60
2021/05/26 22:59:50;;;;;;;9.18;5.95;;;;;;;10.63;73.63;99852.19;4996111;28;20054;-60
2021/05/26 23:02:16;;;;;;;7.82;5.15;;;;;;;10.64;73.56;99851.34;4996166;28;20393;-60
2021/05/26 23:04:41;;;;;;;13.45;5.68;;;;;;;10.63;73.57;99853.09;4980223;28;20486;-59
2021/05/26 23:07:07;;;;;;;12.23;5.57;;;;;;;10.63;73.54;99867.75;4995798;28;20062;-60
2021/05/26 23:09:32;;;;;;;5.97;4.07;;;;;;;10.62;73.87;99858.22;4996917;28;20046;-60
2021/05/26 23:11:58;;;;;;;6.50;5.13;;;;;;;10.62;73.99;99856.53;4997152;28;20616;-60
2021/05/26 23:14:23;;;;;;;8.60;5.18;;;;;;;10.62;73.71;99861.72;4996615;28;20042;-61
2021/05/26 23:16:51;;;;;;;8.13;5.40;;;;;;;10.60;73.65;99860.81;4995612;28;20112;-60
2021/05/26 23:19:16;;;;;;;8.77;4.63;;;;;;;10.60;73.54;99863.41;4995830;28;20074;-60
2021/05/26 23:21:42;;;;;;;6.20;4.05;;;;;;;10.60;73.58;99859.94;4997508;28;20037;-60
2021/05/26 23:24:08;;;;;;;8.20;4.88;;;;;;;10.60;73.77;99868.59;4979430;28;20605;-60
2021/05/26 23:26:34;;;;;;;7.60;4.57;;;;;;;10.61;73.72;99861.66;4996893;28;20486;-60
2021/05/26 23:28:59;;;;;;;6.22;4.32;;;;;;;10.61;73.65;99866.84;4996824;28;20088;-60
2021/05/26 23:31:25;;;;;;;5.93;4.72;;;;;;;10.60;73.93;99868.59;4996810;28;20034;-60
2021/05/26 23:33:50;;;;;;;10.02;5.20;;;;;;;10.60;73.55;99866.00;4996716;28;20117;-60
2021/05/26 23:36:15;;;;;;;7.63;4.35;;;;;;;10.61;73.83;99864.25;4997156;28;20046;-60
2021/05/26 23:38:41;;;;;;;9.02;5.57;;;;;;;10.60;73.44;99873.78;4996064;28;20545;-60
2021/05/26 23:41:07;;;;;;;8.15;5.13;;;;;;;10.60;73.58;99866.00;4996509;28;20498;-60
2021/05/26 23:43:32;;;;;;;7.07;4.30;;;;;;;10.59;73.54;99868.59;4995382;28;20065;-60
2021/05/26 23:45:58;;;;;;;10.35;4.85;;;;;;;10.58;73.49;99859.91;4995918;28;20105;-60
2021/05/26 23:48:23;;;;;;;7.45;4.60;;;;;;;10.57;73.72;99870.28;4996165;28;20525;-61
2021/05/26 23:50:51;;;;;;;11.25;6.07;;;;;;;10.59;73.74;99861.66;4996334;28;20038;-59
2021/05/26 23:53:17;;;;;;;11.52;5.32;;;;;;;10.59;73.87;99863.41;4978782;28;20485;-60
2021/05/26 23:55:45;;;;;;;13.70;6.13;;;;;;;10.57;73.49;99860.78;4996333;28;20045;-59
2021/05/26 23:58:10;;;;;;;7.57;5.40;;;;;;;10.58;73.62;99866.84;4996310;28;20038;-60
